createdAt,value
2023-04-17T00:00:53.467Z,7.27
2023-04-17T00:03:22.620Z,7.22
2023-04-17T00:05:54.179Z,7.24
2023-04-17T00:08:23.234Z,7.28
2023-04-17T00:11:00.664Z,7.14
2023-04-17T00:13:38.036Z,7.02
2023-04-17T00:16:10.675Z,6.84
2023-04-17T00:18:39.858Z,6.76
2023-04-17T00:21:08.900Z,6.74
2023-04-17T00:23:38.008Z,6.76
2023-04-17T00:26:07.184Z,6.90
2023-04-17T00:28:37.617Z,6.87
2023-04-17T00:31:06.766Z,7.03
2023-04-17T00:33:36.124Z,6.96
2023-04-17T00:36:07.196Z,7.01
2023-04-17T00:38:36.437Z,6.94
2023-04-17T00:41:05.679Z,6.92
2023-04-17T00:43:34.765Z,7.01
2023-04-17T00:46:09.052Z,6.94
2023-04-17T00:48:40.980Z,6.89
2023-04-17T00:51:10.047Z,6.78
2023-04-17T00:53:39.428Z,6.69
2023-04-17T00:56:09.515Z,6.68
2023-04-17T00:58:39.282Z,6.56
2023-04-17T01:01:10.429Z,6.58
2023-04-17T01:03:39.658Z,6.76
2023-04-17T01:06:08.985Z,6.81
2023-04-17T01:08:42.947Z,6.66
2023-04-17T01:11:13.153Z,6.61
2023-04-17T01:13:47.389Z,6.52
2023-04-17T01:16:18.972Z,6.54
2023-04-17T01:18:49.257Z,6.55
2023-04-17T01:21:18.368Z,6.58
2023-04-17T01:23:52.073Z,6.59
2023-04-17T01:26:25.507Z,6.53
2023-04-17T01:28:57.657Z,6.49
2023-04-17T01:31:28.172Z,6.49
2023-04-17T01:33:57.436Z,6.46
2023-04-17T01:36:27.690Z,6.39
2023-04-17T01:38:56.796Z,6.28
2023-04-17T01:41:27.334Z,6.24
2023-04-17T01:43:56.389Z,6.19
2023-04-17T01:46:25.623Z,6.16
2023-04-17T01:48:55.116Z,6.15
2023-04-17T01:51:24.192Z,6.05
2023-04-17T01:53:53.409Z,5.96
2023-04-17T01:56:22.872Z,5.87
2023-04-17T01:58:53.321Z,5.73
2023-04-17T02:01:22.563Z,5.59
2023-04-17T02:03:51.742Z,5.48
2023-04-17T02:06:20.965Z,5.43
2023-04-17T02:08:49.975Z,5.37
2023-04-17T02:11:18.968Z,5.28
2023-04-17T02:13:48.054Z,5.23
2023-04-17T02:16:21.766Z,5.28
2023-04-17T02:18:51.857Z,5.30
2023-04-17T02:21:21.220Z,5.26
2023-04-17T02:23:50.287Z,5.31
2023-04-17T02:26:19.317Z,5.17
2023-04-17T02:28:48.451Z,5.13
2023-04-17T02:31:18.943Z,5.20
2023-04-17T02:33:48.361Z,5.23
2023-04-17T02:36:18.240Z,5.33
2023-04-17T02:38:48.131Z,5.45
2023-04-17T02:41:17.155Z,5.55
2023-04-17T02:43:47.159Z,5.45
2023-04-17T02:46:21.228Z,5.32
2023-04-17T02:48:50.327Z,5.29
2023-04-17T02:51:19.338Z,5.52
2023-04-17T02:53:49.214Z,5.46
2023-04-17T02:56:18.843Z,5.46
2023-04-17T02:58:47.883Z,5.48
2023-04-17T03:01:16.949Z,5.57
2023-04-17T03:03:49.863Z,5.57
2023-04-17T03:06:19.126Z,5.52
2023-04-17T03:08:48.207Z,5.51
2023-04-17T03:11:18.040Z,5.58
2023-04-17T03:13:47.090Z,5.55
2023-04-17T03:16:16.415Z,5.65
2023-04-17T03:18:49.539Z,5.76
2023-04-17T03:21:18.622Z,5.67
2023-04-17T03:23:47.698Z,5.74
2023-04-17T03:26:17.034Z,5.72
2023-04-17T03:28:46.129Z,5.67
2023-04-17T03:31:16.251Z,5.69
2023-04-17T03:33:45.362Z,5.86
2023-04-17T03:36:16.968Z,5.95
2023-04-17T03:38:46.379Z,5.98
2023-04-17T03:41:18.280Z,5.96
2023-04-17T03:43:47.682Z,5.96
2023-04-17T03:46:17.332Z,5.85
2023-04-17T03:48:46.506Z,5.80
2023-04-17T03:51:17.517Z,5.76
2023-04-17T03:53:46.637Z,5.69
2023-04-17T03:56:16.145Z,5.78
2023-04-17T03:58:47.080Z,5.75
2023-04-17T04:01:19.788Z,5.73
2023-04-17T04:04:04.796Z,5.74
2023-04-17T04:06:35.570Z,5.83
2023-04-17T04:09:05.182Z,5.97
2023-04-17T04:11:34.171Z,6.11
2023-04-17T04:14:03.178Z,6.17
2023-04-17T04:16:33.016Z,6.18
2023-04-17T04:19:14.833Z,6.18
2023-04-17T04:21:47.116Z,6.39
2023-04-17T04:24:17.645Z,6.26
2023-04-17T04:26:49.826Z,6.24
2023-04-17T04:29:19.865Z,6.28
2023-04-17T04:31:55.620Z,6.24
2023-04-17T04:34:29.903Z,6.31
2023-04-17T04:37:01.357Z,6.33
2023-04-17T04:39:41.065Z,6.37
2023-04-17T04:42:12.423Z,6.55
2023-04-17T04:44:57.534Z,6.52
2023-04-17T04:47:30.170Z,6.62
2023-04-17T04:50:00.182Z,6.68
2023-04-17T04:52:30.630Z,6.95
2023-04-17T04:55:03.113Z,7.06
2023-04-17T04:57:34.238Z,7.12
2023-04-17T05:00:08.562Z,7.17
2023-04-17T05:02:44.940Z,7.23
2023-04-17T05:05:14.387Z,7.30
2023-04-17T05:07:45.428Z,7.34
2023-04-17T05:10:17.194Z,7.44
2023-04-17T05:12:52.510Z,7.54
2023-04-17T05:15:21.689Z,7.58
2023-04-17T05:17:50.716Z,7.68
2023-04-17T05:20:20.434Z,7.76
2023-04-17T05:22:57.845Z,7.86
2023-04-17T05:25:26.969Z,7.98
2023-04-17T05:27:58.437Z,8.06
2023-04-17T05:30:27.520Z,8.18
2023-04-17T05:33:08.569Z,8.33
2023-04-17T05:35:49.373Z,8.44
2023-04-17T05:38:19.936Z,8.55
2023-04-17T05:40:49.313Z,8.66
2023-04-17T05:43:18.943Z,8.79
2023-04-17T05:45:48.744Z,8.91
2023-04-17T05:48:17.747Z,9.04
2023-04-17T05:50:50.249Z,9.13
2023-04-17T05:53:22.788Z,9.25
2023-04-17T05:55:56.037Z,9.44
2023-04-17T05:58:25.226Z,9.57
2023-04-17T06:01:00.023Z,9.72
2023-04-17T06:03:31.056Z,9.84
2023-04-17T06:06:07.835Z,9.93
2023-04-17T06:08:38.409Z,10.07
2023-04-17T06:11:10.022Z,10.21
2023-04-17T06:13:39.874Z,10.37
2023-04-17T06:16:13.781Z,10.50
2023-04-17T06:18:43.060Z,10.69
2023-04-17T06:21:12.180Z,10.83
2023-04-17T06:23:42.684Z,11.00
2023-04-17T06:26:12.549Z,11.15
2023-04-17T06:28:41.983Z,11.37
2023-04-17T06:31:11.668Z,11.54
2023-04-17T06:33:41.623Z,11.73
2023-04-17T06:36:11.096Z,11.91
2023-04-17T06:38:49.711Z,12.12
2023-04-17T06:41:23.040Z,12.29
2023-04-17T06:43:52.116Z,12.39
2023-04-17T06:46:23.652Z,12.53
2023-04-17T06:48:52.756Z,12.68
2023-04-17T06:51:22.286Z,12.81
2023-04-17T06:53:55.347Z,12.91
2023-04-17T06:56:29.904Z,13.00
2023-04-17T06:59:00.343Z,13.11
2023-04-17T07:01:32.489Z,13.20
2023-04-17T07:04:02.221Z,13.38
2023-04-17T07:06:34.580Z,13.47
2023-04-17T07:09:06.124Z,13.55
2023-04-17T07:11:35.619Z,13.61
2023-04-17T07:14:04.673Z,13.54
2023-04-17T07:16:33.937Z,13.45
2023-04-17T07:19:05.987Z,13.47
2023-04-17T07:21:35.444Z,13.49
2023-04-17T07:24:06.280Z,13.46
2023-04-17T07:26:44.028Z,13.44
2023-04-17T07:29:13.373Z,13.50
2023-04-17T07:31:45.657Z,13.78
2023-04-17T07:34:14.819Z,13.82
2023-04-17T07:36:45.246Z,13.94
2023-04-17T07:39:15.627Z,14.24
2023-04-17T07:41:48.945Z,14.52
2023-04-17T07:44:20.445Z,14.62
2023-04-17T07:46:49.623Z,14.85
2023-04-17T07:49:18.873Z,15.18
2023-04-17T07:51:51.312Z,15.70
2023-04-17T07:54:21.818Z,16.11
2023-04-17T07:56:58.418Z,16.18
2023-04-17T07:59:27.656Z,16.45
2023-04-17T08:01:57.400Z,16.74
2023-04-17T08:04:27.066Z,16.17
2023-04-17T08:06:56.329Z,16.57
2023-04-17T08:09:26.954Z,16.85
2023-04-17T08:11:58.345Z,16.60
2023-04-17T08:14:27.607Z,16.87
2023-04-17T08:16:59.799Z,16.82
2023-04-17T08:19:30.025Z,16.75
2023-04-17T08:22:05.072Z,17.18
2023-04-17T08:24:35.615Z,16.96
2023-04-17T08:27:07.945Z,17.51
2023-04-17T08:29:37.753Z,17.42
2023-04-17T08:32:14.776Z,17.57
2023-04-17T08:34:48.583Z,17.29
2023-04-17T08:37:17.693Z,16.57
2023-04-17T08:39:52.473Z,17.00
2023-04-17T08:42:21.568Z,17.47
2023-04-17T08:44:50.595Z,17.86
2023-04-17T08:47:20.010Z,18.04
2023-04-17T08:49:50.642Z,17.55
2023-04-17T08:52:19.894Z,17.59
2023-04-17T08:54:51.504Z,17.17
2023-04-17T08:57:20.670Z,17.38
2023-04-17T08:59:49.650Z,16.98
2023-04-17T09:02:18.872Z,17.30
2023-04-17T09:04:48.597Z,17.16
2023-04-17T09:07:18.399Z,17.35
2023-04-17T09:09:57.292Z,17.51
2023-04-17T09:12:27.762Z,17.07
2023-04-17T09:14:56.818Z,16.30
2023-04-17T09:17:37.856Z,16.13
2023-04-17T09:20:12.138Z,15.93
2023-04-17T09:22:42.446Z,16.10
2023-04-17T09:25:20.610Z,16.11
2023-04-17T09:27:49.760Z,15.85
2023-04-17T09:30:18.803Z,16.25
2023-04-17T09:32:47.907Z,16.72
2023-04-17T09:35:26.826Z,17.19
2023-04-17T09:37:59.390Z,17.21
2023-04-17T09:40:39.339Z,17.06
2023-04-17T09:43:10.824Z,16.71
2023-04-17T09:45:42.751Z,16.59
2023-04-17T09:48:13.914Z,16.92
2023-04-17T09:50:42.936Z,16.64
2023-04-17T09:53:11.935Z,16.74
2023-04-17T09:55:43.654Z,16.99
2023-04-17T09:58:12.857Z,17.08
2023-04-17T10:00:42.866Z,17.26
2023-04-17T10:03:17.891Z,17.36
2023-04-17T10:05:47.379Z,17.81
2023-04-17T10:08:16.948Z,17.68
2023-04-17T10:10:48.746Z,17.59
2023-04-17T10:13:18.962Z,17.91
2023-04-17T10:15:49.320Z,18.03
2023-04-17T10:18:24.551Z,18.09
2023-04-17T10:20:55.489Z,18.10
2023-04-17T10:23:33.341Z,18.30
2023-04-17T10:26:40.204Z,18.41
2023-04-17T10:29:09.232Z,18.42
2023-04-17T10:32:25.967Z,18.20
2023-04-17T10:34:57.133Z,18.53
2023-04-17T10:38:13.885Z,18.82
2023-04-17T10:40:45.263Z,18.39
2023-04-17T10:43:18.094Z,18.81
2023-04-17T10:45:56.812Z,18.67
2023-04-17T10:48:31.077Z,18.67
2023-04-17T10:51:01.728Z,18.45
2023-04-17T10:53:49.733Z,18.08
2023-04-17T10:56:19.730Z,18.57
2023-04-17T10:59:02.605Z,18.31
2023-04-17T11:01:40.570Z,18.32
2023-04-17T11:04:11.539Z,18.94
2023-04-17T11:06:44.830Z,19.19
2023-04-17T11:09:14.426Z,19.13
2023-04-17T11:11:45.398Z,19.43
2023-04-17T11:14:18.327Z,20.19
2023-04-17T11:16:50.183Z,20.41
2023-04-17T11:19:21.679Z,20.28
2023-04-17T11:21:52.612Z,19.83
2023-04-17T11:24:26.021Z,20.14
2023-04-17T11:26:56.247Z,20.06
2023-04-17T11:29:27.671Z,20.47
2023-04-17T11:31:58.328Z,20.48
2023-04-17T11:34:27.907Z,20.53
2023-04-17T11:36:59.052Z,20.51
2023-04-17T11:39:31.128Z,21.29
2023-04-17T11:42:00.499Z,21.71
2023-04-17T11:44:31.222Z,22.41
2023-04-17T11:47:00.728Z,23.27
2023-04-17T11:49:32.420Z,22.31
2023-04-17T11:52:04.201Z,21.76
2023-04-17T11:54:37.121Z,22.29
2023-04-17T11:57:08.178Z,22.69
2023-04-17T11:59:42.163Z,21.08
2023-04-17T12:02:12.541Z,23.24
2023-04-17T12:04:42.000Z,22.59
2023-04-17T12:07:24.256Z,21.98
2023-04-17T12:09:57.665Z,21.70
2023-04-17T12:12:26.977Z,20.69
2023-04-17T12:14:59.082Z,19.86
2023-04-17T12:17:28.300Z,20.45
2023-04-17T12:20:02.325Z,19.60
2023-04-17T12:22:31.386Z,20.97
2023-04-17T12:25:00.741Z,23.70
2023-04-17T12:27:29.755Z,23.25
2023-04-17T12:30:00.152Z,23.23
2023-04-17T12:32:29.232Z,22.79
2023-04-17T12:34:58.836Z,21.41
2023-04-17T12:37:27.914Z,21.13
2023-04-17T12:39:56.929Z,20.57
2023-04-17T12:42:26.812Z,20.19
2023-04-17T12:44:57.182Z,19.90
2023-04-17T12:47:27.728Z,20.02
2023-04-17T12:49:56.843Z,19.75
2023-04-17T12:52:25.986Z,19.22
2023-04-17T12:54:59.558Z,19.26
2023-04-17T12:57:29.672Z,19.67
2023-04-17T12:59:58.784Z,19.78
2023-04-17T13:02:29.403Z,20.23
2023-04-17T13:04:58.535Z,20.47
2023-04-17T13:07:27.905Z,21.92
2023-04-17T13:09:56.955Z,25.84
2023-04-17T13:12:26.215Z,28.72
2023-04-17T13:14:57.452Z,29.36
2023-04-17T13:17:28.103Z,26.82
2023-04-17T13:19:57.308Z,26.95
2023-04-17T13:22:26.301Z,25.60
2023-04-17T13:24:55.363Z,26.46
2023-04-17T13:27:25.483Z,26.85
2023-04-17T13:29:55.986Z,26.77
2023-04-17T13:32:25.060Z,24.46
2023-04-17T13:34:57.399Z,22.80
2023-04-17T13:37:27.552Z,23.11
2023-04-17T13:39:56.662Z,22.87
2023-04-17T13:42:26.046Z,21.98
2023-04-17T13:44:55.045Z,23.40
2023-04-17T13:47:24.082Z,25.11
2023-04-17T13:49:53.121Z,26.35
2023-04-17T13:52:23.619Z,24.39
2023-04-17T13:54:52.787Z,23.89
2023-04-17T13:57:21.842Z,23.56
2023-04-17T13:59:50.904Z,23.75
2023-04-17T14:02:20.077Z,23.98
2023-04-17T14:04:49.439Z,22.73
2023-04-17T14:07:18.501Z,21.49
2023-04-17T14:09:48.928Z,21.25
2023-04-17T14:12:20.842Z,21.84
2023-04-17T14:14:50.011Z,23.22
2023-04-17T14:17:19.300Z,25.64
2023-04-17T14:19:48.480Z,27.02
2023-04-17T14:22:17.543Z,24.19
2023-04-17T14:24:47.917Z,24.83
2023-04-17T14:27:17.258Z,23.05
2023-04-17T14:29:46.620Z,22.25
2023-04-17T14:32:15.843Z,22.02
2023-04-17T14:34:45.329Z,22.11
2023-04-17T14:37:14.601Z,21.54
2023-04-17T14:39:43.896Z,21.33
2023-04-17T14:42:14.476Z,21.30
2023-04-17T14:44:45.679Z,20.96
2023-04-17T14:47:14.866Z,20.20
2023-04-17T14:49:46.199Z,20.95
2023-04-17T14:52:15.439Z,20.60
2023-04-17T14:54:44.495Z,19.13
2023-04-17T14:57:15.132Z,19.79
2023-04-17T14:59:44.499Z,20.37
2023-04-17T15:02:16.958Z,22.55
2023-04-17T15:04:47.713Z,26.09
2023-04-17T15:07:16.822Z,27.03
2023-04-17T15:09:47.026Z,27.41
2023-04-17T15:12:17.442Z,29.16
2023-04-17T15:14:46.426Z,29.18
2023-04-17T15:17:16.666Z,28.63
2023-04-17T15:19:45.766Z,29.79
2023-04-17T15:22:14.783Z,28.48
2023-04-17T15:24:44.085Z,29.40
2023-04-17T15:27:13.481Z,29.80
2023-04-17T15:29:45.814Z,30.06
2023-04-17T15:32:15.076Z,29.87
2023-04-17T15:34:44.225Z,27.91
2023-04-17T15:37:13.259Z,27.37
2023-04-17T15:39:42.319Z,28.02
2023-04-17T15:42:12.018Z,28.79
2023-04-17T15:44:41.025Z,27.41
2023-04-17T15:47:11.520Z,25.01
2023-04-17T15:49:43.821Z,23.09
2023-04-17T15:52:13.272Z,21.66
2023-04-17T15:54:42.975Z,20.59
2023-04-17T15:57:12.604Z,21.08
2023-04-17T15:59:43.603Z,22.65
2023-04-17T16:02:14.411Z,23.68
2023-04-17T16:04:44.121Z,22.65
2023-04-17T16:07:14.155Z,20.64
2023-04-17T16:09:44.776Z,19.51
2023-04-17T16:12:13.866Z,18.04
2023-04-17T16:14:42.908Z,17.77
2023-04-17T16:17:13.273Z,17.59
2023-04-17T16:19:42.447Z,17.57
2023-04-17T16:22:13.299Z,17.65
2023-04-17T16:24:42.687Z,17.36
2023-04-17T16:27:11.755Z,17.94
2023-04-17T16:29:41.129Z,18.02
2023-04-17T16:32:12.246Z,18.23
2023-04-17T16:34:42.913Z,18.67
2023-04-17T16:37:12.166Z,19.54
2023-04-17T16:39:41.214Z,19.74
2023-04-17T16:42:10.461Z,19.47
2023-04-17T16:44:39.498Z,18.64
2023-04-17T16:49:40.368Z,18.60
2023-04-17T16:52:10.901Z,18.72
2023-04-17T16:54:39.980Z,18.44
2023-04-17T16:57:11.139Z,17.61
2023-04-17T16:59:40.447Z,17.45
2023-04-17T17:02:09.792Z,17.80
2023-04-17T17:04:38.987Z,16.99
2023-04-17T17:07:08.137Z,16.67
2023-04-17T17:09:38.626Z,16.68
2023-04-17T17:12:08.407Z,16.56
2023-04-17T17:14:37.672Z,16.56
2023-04-17T17:17:06.682Z,16.45
2023-04-17T17:19:35.943Z,16.15
2023-04-17T17:22:05.005Z,15.81
2023-04-17T17:24:34.524Z,15.29
2023-04-17T17:27:05.695Z,14.96
2023-04-17T17:29:35.023Z,15.28
2023-04-17T17:32:04.218Z,15.45
2023-04-17T17:34:33.656Z,15.48
2023-04-17T17:37:02.789Z,15.24
2023-04-17T17:39:31.925Z,14.64
2023-04-17T17:42:03.031Z,14.24
2023-04-17T17:44:33.464Z,14.14
2023-04-17T17:47:04.222Z,13.78
2023-04-17T17:49:34.254Z,13.47
2023-04-17T17:52:03.756Z,13.29
2023-04-17T17:54:37.505Z,13.02
2023-04-17T17:57:07.507Z,12.93
2023-04-17T17:59:38.320Z,12.79
2023-04-17T18:02:08.111Z,12.63
2023-04-17T18:04:38.017Z,12.88
2023-04-17T18:07:09.896Z,12.77
2023-04-17T18:09:39.054Z,12.71
2023-04-17T18:12:09.184Z,12.78
2023-04-17T18:14:39.597Z,12.72
2023-04-17T18:17:08.711Z,12.66
2023-04-17T18:19:40.816Z,12.43
2023-04-17T18:22:10.326Z,12.36
2023-04-17T18:24:39.672Z,12.31
2023-04-17T18:27:08.745Z,12.31
2023-04-17T18:29:39.176Z,12.33
2023-04-17T18:32:08.202Z,12.36
2023-04-17T18:34:37.127Z,12.19
2023-04-17T18:37:06.646Z,12.15
2023-04-17T18:39:35.668Z,12.03
2023-04-17T18:42:05.065Z,11.94
2023-04-17T18:44:34.054Z,11.81
2023-04-17T18:47:06.073Z,11.71
2023-04-17T18:49:35.181Z,11.59
2023-04-17T18:52:05.688Z,11.56
2023-04-17T18:54:35.091Z,11.41
2023-04-17T18:57:04.156Z,10.95
2023-04-17T18:59:33.150Z,10.84
2023-04-17T19:02:02.514Z,11.00
2023-04-17T19:04:33.109Z,10.86
2023-04-17T19:07:03.160Z,10.52
2023-04-17T19:09:32.441Z,10.23
2023-04-17T19:12:02.954Z,10.20
2023-04-17T19:14:32.761Z,10.16
2023-04-17T19:17:01.813Z,10.02
2023-04-17T19:19:32.206Z,10.18
2023-04-17T19:22:01.301Z,10.31
2023-04-17T19:24:30.279Z,10.51
2023-04-17T19:26:59.303Z,10.87
2023-04-17T19:29:30.686Z,10.93
2023-04-17T19:31:59.945Z,10.93
2023-04-17T19:34:29.293Z,11.18
2023-04-17T19:36:59.631Z,11.17
2023-04-17T19:39:29.479Z,10.76
2023-04-17T19:41:58.868Z,10.90
2023-04-17T19:44:28.875Z,10.52
2023-04-17T19:46:59.960Z,10.13
2023-04-17T19:49:29.713Z,10.13
2023-04-17T19:52:01.036Z,9.86
2023-04-17T19:54:30.536Z,9.65
2023-04-17T19:56:59.536Z,9.48
2023-04-17T19:59:28.518Z,9.58
2023-04-17T20:01:57.738Z,9.46
2023-04-17T20:04:26.851Z,9.31
2023-04-17T20:06:55.963Z,9.14
2023-04-17T20:09:26.640Z,9.11
2023-04-17T20:11:55.700Z,9.11
2023-04-17T20:14:25.770Z,8.97
2023-04-17T20:16:54.854Z,8.73
2023-04-17T20:19:24.832Z,8.56
2023-04-17T20:21:53.794Z,8.40
2023-04-17T20:24:23.116Z,8.34
2023-04-17T20:26:53.828Z,8.14
2023-04-17T20:29:23.835Z,8.09
2023-04-17T20:31:52.842Z,8.18
2023-04-17T20:34:22.011Z,8.14
2023-04-17T20:36:51.006Z,8.13
2023-04-17T20:39:20.014Z,8.07
2023-04-17T20:41:49.073Z,8.26
2023-04-17T20:44:19.699Z,8.08
2023-04-17T20:46:48.816Z,8.11
2023-04-17T20:49:17.811Z,8.04
2023-04-17T20:51:46.817Z,7.86
2023-04-17T20:54:15.965Z,7.89
2023-04-17T20:56:45.407Z,7.79
2023-04-17T20:59:14.420Z,7.86
2023-04-17T21:01:44.912Z,8.13
2023-04-17T21:04:14.192Z,7.91
2023-04-17T21:06:43.353Z,7.70
2023-04-17T21:09:14.233Z,7.60
2023-04-17T21:11:43.357Z,7.48
2023-04-17T21:14:13.856Z,7.42
2023-04-17T21:16:45.466Z,7.31
2023-04-17T21:19:15.936Z,7.48
2023-04-17T21:21:44.920Z,7.31
2023-04-17T21:24:14.209Z,7.23
2023-04-17T21:26:43.342Z,7.15
2023-04-17T21:29:12.342Z,7.26
2023-04-17T21:31:41.352Z,7.17
2023-04-17T21:34:12.198Z,7.17
2023-04-17T21:36:41.529Z,7.14
2023-04-17T21:39:10.547Z,7.05
2023-04-17T21:41:39.498Z,6.98
2023-04-17T21:44:10.395Z,7.19
2023-04-17T21:46:39.839Z,7.30
2023-04-17T21:49:08.927Z,7.38
2023-04-17T21:51:39.384Z,8.07
2023-04-17T21:54:09.562Z,8.13
2023-04-17T21:56:38.599Z,8.29
2023-04-17T21:59:07.532Z,8.46
2023-04-17T22:01:36.578Z,8.64
2023-04-17T22:04:06.060Z,9.03
2023-04-17T22:06:38.162Z,9.36
2023-04-17T22:09:08.789Z,9.58
2023-04-17T22:11:39.377Z,9.61
2023-04-17T22:14:08.377Z,9.58
2023-04-17T22:16:37.452Z,9.75
2023-04-17T22:19:06.802Z,9.85
2023-04-17T22:21:35.918Z,9.90
2023-04-17T22:24:07.041Z,9.99
2023-04-17T22:26:36.143Z,10.06
2023-04-17T22:29:05.259Z,10.18
2023-04-17T22:31:34.378Z,10.31
2023-04-17T22:34:03.702Z,10.35
2023-04-17T22:36:32.711Z,10.39
2023-04-17T22:39:01.684Z,10.46
2023-04-17T22:41:32.130Z,10.55
2023-04-17T22:44:01.162Z,10.65
2023-04-17T22:46:30.188Z,10.65
2023-04-17T22:49:00.625Z,10.71
2023-04-17T22:51:29.682Z,10.59
2023-04-17T22:53:59.957Z,10.52
2023-04-17T22:56:32.111Z,10.38
2023-04-17T22:59:01.121Z,10.43
2023-04-17T23:01:30.111Z,10.50
2023-04-17T23:03:59.086Z,10.34
2023-04-17T23:06:28.118Z,10.22
2023-04-17T23:08:58.289Z,10.12
2023-04-17T23:11:27.310Z,10.39
2023-04-17T23:13:59.583Z,10.51
2023-04-17T23:16:30.279Z,10.49
2023-04-17T23:18:59.752Z,10.33
2023-04-17T23:21:28.765Z,10.37
2023-04-17T23:23:57.808Z,10.33
2023-04-17T23:26:27.088Z,10.25
2023-04-17T23:28:57.446Z,10.23
2023-04-17T23:31:26.530Z,10.30
2023-04-17T23:33:55.502Z,10.33
2023-04-17T23:36:24.504Z,10.26
2023-04-17T23:38:53.835Z,10.31
2023-04-17T23:41:22.842Z,10.36
2023-04-17T23:43:52.537Z,10.36
2023-04-17T23:46:23.211Z,10.29
2023-04-17T23:48:52.352Z,10.22
2023-04-17T23:51:21.474Z,10.34
2023-04-17T23:53:50.757Z,10.17
2023-04-17T23:56:22.140Z,10.06
2023-04-17T23:58:51.276Z,10.08
